createdAt,value
2017-07-05T00:00:48.921Z,31.5
2017-07-05T00:01:46.051Z,31.5
2017-07-05T00:02:50.995Z,31.4
2017-07-05T00:03:46.482Z,31.4
2017-07-05T00:04:51.274Z,31.4
2017-07-05T00:05:46.180Z,31.4
2017-07-05T00:06:46.282Z,31.4
2017-07-05T00:07:51.460Z,31.4
2017-07-05T00:08:51.504Z,31.4
2017-07-05T00:09:51.934Z,31.4
2017-07-05T00:10:49.499Z,31.4
2017-07-05T00:11:46.776Z,31.4
2017-07-05T00:12:46.645Z,31.4
2017-07-05T00:13:49.619Z,31.4
2017-07-05T00:14:46.755Z,31.4
2017-07-05T00:15:47.219Z,31.4
2017-07-05T00:16:46.826Z,31.4
2017-07-05T00:17:46.865Z,31.4
2017-07-05T00:18:47.113Z,31.4
2017-07-05T00:19:47.196Z,31.4
2017-07-05T00:20:49.933Z,31.4
2017-07-05T00:21:47.354Z,31.4
2017-07-05T00:22:47.258Z,31.4
2017-07-05T00:23:47.175Z,31.4
2017-07-05T00:24:47.428Z,31.4
2017-07-05T00:25:50.372Z,31.4
2017-07-05T00:26:47.416Z,31.4
2017-07-05T00:27:50.635Z,31.4
2017-07-05T00:28:47.623Z,31.4
2017-07-05T00:29:47.523Z,31.4
2017-07-05T00:30:47.555Z,31.4
2017-07-05T00:31:47.576Z,31.4
2017-07-05T00:32:52.782Z,31.4
2017-07-05T00:33:50.782Z,31.4
2017-07-05T00:34:47.906Z,31.4
2017-07-05T00:35:47.885Z,31.4
2017-07-05T00:36:52.805Z,31.4
2017-07-05T00:37:52.907Z,31.4
2017-07-05T00:38:47.857Z,31.4
2017-07-05T00:39:48.278Z,31.4
2017-07-05T00:40:50.759Z,31.4
2017-07-05T00:41:53.024Z,31.4
2017-07-05T00:42:47.877Z,31.4
2017-07-05T00:43:48.108Z,31.4
2017-07-05T00:44:48.063Z,31.4
2017-07-05T00:45:48.451Z,31.4
2017-07-05T00:46:48.236Z,31.4
2017-07-05T00:47:48.090Z,31.4
2017-07-05T00:48:53.192Z,31.4
2017-07-05T00:49:48.386Z,31.4
2017-07-05T00:50:48.375Z,31.4
2017-07-05T00:51:51.471Z,31.4
2017-07-05T00:52:48.562Z,31.3
2017-07-05T00:53:48.537Z,31.4
2017-07-05T00:54:53.584Z,31.4
2017-07-05T00:55:48.719Z,31.4
2017-07-05T00:56:48.798Z,31.4
2017-07-05T00:57:49.077Z,31.4
2017-07-05T00:58:48.732Z,31.4
2017-07-05T00:59:48.853Z,31.4
2017-07-05T01:00:51.705Z,31.4
2017-07-05T01:01:51.851Z,31.4
2017-07-05T01:02:48.941Z,31.4
2017-07-05T01:03:54.360Z,31.4
2017-07-05T01:04:49.028Z,31.3
2017-07-05T01:05:49.284Z,31.4
2017-07-05T01:06:54.153Z,31.4
2017-07-05T01:07:49.156Z,31.4
2017-07-05T01:08:49.278Z,31.3
2017-07-05T01:09:49.682Z,31.4
2017-07-05T01:10:49.456Z,31.4
2017-07-05T01:11:49.522Z,31.3
2017-07-05T01:12:52.346Z,31.4
2017-07-05T01:13:49.645Z,31.4
2017-07-05T01:14:49.637Z,31.3
2017-07-05T01:15:52.893Z,31.4
2017-07-05T01:16:49.884Z,31.4
2017-07-05T01:17:49.912Z,31.4
2017-07-05T01:18:49.910Z,31.4
2017-07-05T01:19:50.053Z,31.4
2017-07-05T01:20:55.001Z,31.4
2017-07-05T01:21:50.365Z,31.4
2017-07-05T01:22:50.109Z,31.4
2017-07-05T01:23:50.090Z,31.4
2017-07-05T01:24:50.304Z,31.4
2017-07-05T01:25:50.341Z,31.4
2017-07-05T01:26:50.385Z,31.4
2017-07-05T01:27:53.454Z,31.4
2017-07-05T01:28:50.377Z,31.4
2017-07-05T01:29:53.285Z,31.3
2017-07-05T01:30:50.386Z,31.4
2017-07-05T01:31:53.481Z,31.4
2017-07-05T01:32:50.694Z,31.4
2017-07-05T01:33:56.030Z,31.4
2017-07-05T01:34:50.785Z,31.4
2017-07-05T01:35:53.641Z,31.4
2017-07-05T01:36:51.003Z,31.3
2017-07-05T01:37:54.466Z,31.3
2017-07-05T01:38:55.989Z,31.3
2017-07-05T01:39:56.441Z,31.3
2017-07-05T01:40:53.917Z,31.3
2017-07-05T01:41:53.920Z,31.3
2017-07-05T01:42:51.206Z,31.3
2017-07-05T01:43:51.293Z,31.3
2017-07-05T01:44:51.212Z,31.3
2017-07-05T01:45:54.457Z,31.3
2017-07-05T01:46:54.289Z,31.3
2017-07-05T01:47:51.544Z,31.3
2017-07-05T01:48:54.518Z,31.3
2017-07-05T01:49:51.744Z,31.3
2017-07-05T01:50:54.615Z,31.3
2017-07-05T01:51:52.123Z,31.3
2017-07-05T01:52:51.933Z,31.3
2017-07-05T01:53:56.922Z,31.3
2017-07-05T01:54:51.876Z,31.3
2017-07-05T01:55:56.978Z,31.3
2017-07-05T01:56:54.927Z,31.3
2017-07-05T01:57:52.411Z,31.3
2017-07-05T01:58:55.087Z,31.3
2017-07-05T01:59:57.178Z,31.3
2017-07-05T02:00:57.182Z,31.3
2017-07-05T02:01:52.217Z,31.3
2017-07-05T02:02:52.319Z,31.3
2017-07-05T02:03:55.581Z,31.3
2017-07-05T02:04:52.514Z,31.3
2017-07-05T02:05:55.420Z,31.3
2017-07-05T02:06:55.438Z,31.3
2017-07-05T02:07:57.501Z,31.2
2017-07-05T02:08:52.574Z,31.3
2017-07-05T02:09:57.993Z,31.3
2017-07-05T02:10:52.583Z,31.2
2017-07-05T02:11:52.649Z,31.3
2017-07-05T02:12:55.554Z,31.3
2017-07-05T02:13:55.597Z,31.3
2017-07-05T02:14:52.865Z,31.3
2017-07-05T02:15:53.095Z,31.3
2017-07-05T02:16:52.847Z,31.3
2017-07-05T02:17:55.835Z,31.2
2017-07-05T02:18:53.008Z,31.3
2017-07-05T02:19:52.920Z,31.3
2017-07-05T02:20:53.128Z,31.3
2017-07-05T02:21:53.439Z,31.2
2017-07-05T02:22:58.239Z,31.3
2017-07-05T02:23:53.273Z,31.3
2017-07-05T02:24:58.321Z,31.2
2017-07-05T02:25:58.392Z,31.3
2017-07-05T02:26:58.457Z,31.3
2017-07-05T02:27:53.696Z,31.3
2017-07-05T02:28:53.572Z,31.2
2017-07-05T02:29:56.570Z,31.3
2017-07-05T02:30:58.607Z,31.3
2017-07-05T02:31:53.578Z,31.3
2017-07-05T02:32:58.559Z,31.3
2017-07-05T02:33:56.852Z,31.3
2017-07-05T02:34:53.745Z,31.3
2017-07-05T02:35:53.815Z,31.3
2017-07-05T02:36:56.811Z,31.3
2017-07-05T02:37:56.836Z,31.3
2017-07-05T02:38:57.194Z,31.3
2017-07-05T02:39:57.120Z,31.3
2017-07-05T02:40:54.311Z,31.3
2017-07-05T02:41:54.372Z,31.3
2017-07-05T02:42:57.226Z,31.3
2017-07-05T02:43:57.203Z,31.3
2017-07-05T02:44:54.596Z,31.3
2017-07-05T02:45:54.409Z,31.3
2017-07-05T02:46:59.365Z,31.3
2017-07-05T02:47:54.629Z,31.2
2017-07-05T02:48:57.388Z,31.2
2017-07-05T02:49:54.544Z,31.2
2017-07-05T02:50:59.936Z,31.2
2017-07-05T02:51:59.652Z,31.2
2017-07-05T02:52:57.563Z,31.2
2017-07-05T02:53:57.625Z,31.2
2017-07-05T02:54:54.995Z,31.2
2017-07-05T02:55:54.963Z,31.2
2017-07-05T02:56:58.233Z,31.2
2017-07-05T02:57:55.107Z,31.2
2017-07-05T02:58:55.083Z,31.2
2017-07-05T02:59:55.243Z,31.2
2017-07-05T03:00:55.195Z,31.2
2017-07-05T03:02:00.356Z,31.2
2017-07-05T03:03:00.697Z,31.2
2017-07-05T03:04:00.463Z,31.2
2017-07-05T03:04:55.566Z,31.2
2017-07-05T03:05:55.523Z,31.2
2017-07-05T03:06:55.517Z,31.2
2017-07-05T03:07:55.569Z,31.2
2017-07-05T03:08:58.740Z,31.2
2017-07-05T03:09:55.638Z,31.2
2017-07-05T03:11:00.520Z,31.2
2017-07-05T03:11:55.750Z,31.2
2017-07-05T03:12:58.555Z,31.2
2017-07-05T03:14:00.722Z,31.2
2017-07-05T03:14:59.086Z,31.2
2017-07-05T03:16:00.856Z,31.2
2017-07-05T03:16:56.076Z,31.2
2017-07-05T03:17:56.072Z,31.2
2017-07-05T03:18:59.066Z,31.2
2017-07-05T03:20:01.169Z,31.2
2017-07-05T03:20:59.289Z,31.2
2017-07-05T03:21:56.193Z,31.2
2017-07-05T03:22:56.373Z,31.2
2017-07-05T03:23:56.418Z,31.2
2017-07-05T03:24:59.246Z,31.2
2017-07-05T03:25:56.544Z,31.2
2017-07-05T03:26:56.676Z,31.2
2017-07-05T03:27:56.576Z,31.2
2017-07-05T03:29:01.655Z,31.2
2017-07-05T03:29:56.585Z,31.2
2017-07-05T03:30:56.666Z,31.2
2017-07-05T03:31:56.701Z,31.2
2017-07-05T03:32:57.117Z,31.2
2017-07-05T03:33:56.933Z,31.2
2017-07-05T03:35:01.879Z,31.2
2017-07-05T03:35:59.704Z,31.2
2017-07-05T03:37:01.798Z,31.2
2017-07-05T03:37:57.024Z,31.2
2017-07-05T03:39:00.067Z,31.2
2017-07-05T03:39:59.781Z,31.2
2017-07-05T03:40:57.078Z,31.2
2017-07-05T03:41:59.874Z,31.2
2017-07-05T03:42:57.175Z,31.2
2017-07-05T03:43:57.303Z,31.2
2017-07-05T03:45:02.487Z,31.2
2017-07-05T03:45:57.098Z,31.2
2017-07-05T03:46:57.132Z,31.2
2017-07-05T03:47:57.325Z,31.2
2017-07-05T03:48:57.393Z,31.2
2017-07-05T03:50:00.129Z,31.2
2017-07-05T03:50:57.769Z,31.2
2017-07-05T03:51:57.534Z,31.2
2017-07-05T03:53:00.270Z,31.2
2017-07-05T03:54:00.380Z,31.2
2017-07-05T03:54:57.556Z,31.2
2017-07-05T03:56:00.563Z,31.2
2017-07-05T03:56:57.903Z,31.2
2017-07-05T03:58:02.794Z,31.2
2017-07-05T03:58:57.882Z,31.2
2017-07-05T04:00:00.724Z,31.2
2017-07-05T04:00:58.027Z,31.2
2017-07-05T04:02:00.954Z,31.2
2017-07-05T04:02:58.262Z,31.2
2017-07-05T04:03:57.965Z,31.2
2017-07-05T04:04:58.264Z,31.2
2017-07-05T04:05:58.367Z,31.2
2017-07-05T04:07:01.112Z,31.2
2017-07-05T04:07:58.420Z,31.3
2017-07-05T04:08:58.745Z,31.2
2017-07-05T04:09:58.384Z,31.2
2017-07-05T04:11:01.478Z,31.3
2017-07-05T04:11:58.605Z,31.3
2017-07-05T04:13:03.569Z,31.3
2017-07-05T04:13:58.498Z,31.3
2017-07-05T04:14:58.863Z,31.3
2017-07-05T04:15:58.844Z,31.3
2017-07-05T04:17:01.660Z,31.3
2017-07-05T04:17:58.969Z,31.3
2017-07-05T04:19:03.867Z,31.3
2017-07-05T04:19:58.981Z,31.3
2017-07-05T04:20:59.326Z,31.3
2017-07-05T04:22:01.872Z,31.3
2017-07-05T04:22:59.214Z,31.3
2017-07-05T04:23:59.133Z,31.3
2017-07-05T04:25:04.153Z,31.3
2017-07-05T04:26:02.153Z,31.3
2017-07-05T04:26:59.635Z,31.3
2017-07-05T04:28:02.365Z,31.3
2017-07-05T04:28:59.583Z,31.4
2017-07-05T04:30:02.427Z,31.3
2017-07-05T04:31:04.477Z,31.4
2017-07-05T04:32:04.568Z,31.4
2017-07-05T04:33:04.929Z,31.4
2017-07-05T04:33:59.566Z,31.4
2017-07-05T04:34:59.729Z,31.4
2017-07-05T04:36:04.832Z,31.4
2017-07-05T04:37:02.685Z,31.4
2017-07-05T04:38:02.849Z,31.5
2017-07-05T04:39:02.948Z,31.5
2017-07-05T04:40:00.041Z,31.5
2017-07-05T04:41:00.106Z,31.4
2017-07-05T04:41:59.940Z,31.3
2017-07-05T04:43:05.174Z,31
2017-07-05T04:44:00.115Z,30.8
2017-07-05T04:45:05.424Z,30.8
2017-07-05T04:46:05.141Z,30.8
2017-07-05T04:47:00.265Z,30.8
2017-07-05T04:48:00.433Z,30.8
2017-07-05T04:49:00.473Z,30.9
2017-07-05T04:50:00.551Z,30.9
2017-07-05T04:51:00.724Z,30.9
2017-07-05T04:52:00.551Z,31
2017-07-05T04:53:03.519Z,31
2017-07-05T04:54:00.586Z,31
2017-07-05T04:55:05.670Z,31.1
2017-07-05T04:56:03.642Z,31.1
2017-07-05T04:57:01.178Z,31.1
2017-07-05T04:58:03.786Z,31.1
2017-07-05T04:59:03.855Z,31
2017-07-05T05:00:06.026Z,31.1
2017-07-05T05:01:01.124Z,31
2017-07-05T05:02:01.143Z,31
2017-07-05T05:03:06.421Z,31
2017-07-05T05:04:06.285Z,31
2017-07-05T05:05:01.272Z,31
2017-07-05T05:06:01.264Z,31
2017-07-05T05:07:04.214Z,31
2017-07-05T05:08:01.435Z,31
2017-07-05T05:09:04.669Z,31
2017-07-05T05:10:01.750Z,31
2017-07-05T05:11:04.657Z,31
2017-07-05T05:12:01.814Z,31
2017-07-05T05:13:04.714Z,31
2017-07-05T05:14:07.020Z,31
2017-07-05T05:15:05.300Z,31
2017-07-05T05:16:05.079Z,31
2017-07-05T05:17:05.160Z,31
2017-07-05T05:18:02.249Z,31
2017-07-05T05:19:02.415Z,31
2017-07-05T05:20:05.262Z,31
2017-07-05T05:21:02.686Z,31
2017-07-05T05:22:02.397Z,30.4
2017-07-05T05:23:02.599Z,29.7
2017-07-05T05:24:02.532Z,28.9
2017-07-05T05:25:02.749Z,28
2017-07-05T05:26:05.625Z,27.3
2017-07-05T05:27:03.157Z,26.7
2017-07-05T05:28:02.959Z,26.1
2017-07-05T05:29:05.871Z,25.8
2017-07-05T05:30:03.055Z,25.5
2017-07-05T05:31:02.998Z,25.3
2017-07-05T05:32:08.140Z,25.2
2017-07-05T05:33:08.381Z,25.4
2017-07-05T05:34:08.167Z,25.6
2017-07-05T05:35:03.265Z,25.9
2017-07-05T05:36:03.166Z,26.2
2017-07-05T05:37:08.364Z,26.4
2017-07-05T05:38:03.513Z,26.6
2017-07-05T05:39:08.705Z,26.9
2017-07-05T05:40:08.630Z,27.1
2017-07-05T05:41:03.736Z,27.2
2017-07-05T05:42:06.474Z,27.5
2017-07-05T05:43:08.630Z,27.6
2017-07-05T05:44:06.544Z,27.8
2017-07-05T05:45:06.834Z,27.9
2017-07-05T05:46:06.664Z,28
2017-07-05T05:47:06.684Z,28.1
2017-07-05T05:48:06.822Z,28.3
2017-07-05T05:49:03.997Z,28.3
2017-07-05T05:50:06.834Z,28.4
2017-07-05T05:51:07.068Z,28.5
2017-07-05T05:52:04.078Z,28.5
2017-07-05T05:53:03.929Z,28.6
2017-07-05T05:54:08.991Z,28.7
2017-07-05T05:55:09.716Z,28.8
2017-07-05T05:56:04.050Z,28.8
2017-07-05T05:57:07.832Z,28.8
2017-07-05T05:58:04.511Z,28.8
2017-07-05T05:59:09.390Z,28.9
2017-07-05T06:00:10.090Z,29
2017-07-05T06:01:04.463Z,29.1
2017-07-05T06:02:07.430Z,29.1
2017-07-05T06:03:04.778Z,29.2
2017-07-05T06:04:09.543Z,29.3
2017-07-05T06:05:07.562Z,29.5
2017-07-05T06:06:07.816Z,29.6
2017-07-05T06:07:07.820Z,29.7
2017-07-05T06:08:07.660Z,29.9
2017-07-05T06:09:06.094Z,30
2017-07-05T06:10:07.878Z,30.1
2017-07-05T06:11:08.056Z,30.2
2017-07-05T06:12:07.917Z,30.2
2017-07-05T06:13:10.178Z,30.4
2017-07-05T06:14:09.736Z,30.4
2017-07-05T06:15:10.680Z,30.5
2017-07-05T06:16:10.855Z,30.5
2017-07-05T06:17:10.432Z,30.6
2017-07-05T06:18:06.669Z,30.6
2017-07-05T06:19:13.865Z,30.7
2017-07-05T06:20:06.671Z,30.7
2017-07-05T06:21:14.218Z,30.7
2017-07-05T06:22:10.818Z,30.7
2017-07-05T06:23:08.683Z,30.7
2017-07-05T06:24:08.958Z,30.7
2017-07-05T06:25:06.005Z,30.8
2017-07-05T06:26:05.909Z,30.8
2017-07-05T06:27:12.726Z,30.8
2017-07-05T06:28:08.989Z,30.8
2017-07-05T06:29:06.184Z,30.8
2017-07-05T06:30:07.826Z,30.9
2017-07-05T06:31:11.953Z,30.9
2017-07-05T06:32:07.498Z,30.9
2017-07-05T06:33:06.933Z,30.9
2017-07-05T06:34:11.750Z,31
2017-07-05T06:35:09.449Z,31
2017-07-05T06:36:08.997Z,31.1
2017-07-05T06:37:13.205Z,31.1
2017-07-05T06:38:09.818Z,31.2
2017-07-05T06:39:08.701Z,31.2
2017-07-05T06:40:15.517Z,31.3
2017-07-05T06:41:14.259Z,31.3
2017-07-05T06:42:08.841Z,31.4
2017-07-05T06:43:12.335Z,31.4
2017-07-05T06:44:09.756Z,31.4
2017-07-05T06:45:07.722Z,31.5
2017-07-05T06:46:08.812Z,31.5
2017-07-05T06:47:07.613Z,31.5
2017-07-05T06:48:07.716Z,31.6
2017-07-05T06:49:08.879Z,31.6
2017-07-05T06:50:07.332Z,31.6
2017-07-05T06:51:10.138Z,31.7
2017-07-05T06:52:12.451Z,31.7
2017-07-05T06:53:10.994Z,31.7
2017-07-05T06:54:10.139Z,31.8
2017-07-05T06:55:08.905Z,31.8
2017-07-05T06:56:07.563Z,31.9
2017-07-05T06:57:12.475Z,31.9
2017-07-05T06:58:16.584Z,32
2017-07-05T06:59:16.872Z,32
2017-07-05T07:00:07.911Z,32.1
2017-07-05T07:01:08.633Z,32.1
2017-07-05T07:02:14.091Z,32.2
2017-07-05T07:03:15.791Z,32.1
2017-07-05T07:04:09.970Z,32.2
2017-07-05T07:05:17.571Z,32.2
2017-07-05T07:06:17.788Z,32.3
2017-07-05T07:07:19.712Z,32.3
2017-07-05T07:08:16.518Z,32.4
2017-07-05T07:09:17.331Z,32.4
2017-07-05T07:10:16.273Z,32.4
2017-07-05T07:11:09.595Z,32.4
2017-07-05T07:12:13.266Z,32.5
2017-07-05T07:13:16.303Z,32.5
2017-07-05T07:14:10.312Z,32.6
2017-07-05T07:15:08.491Z,32.6
2017-07-05T07:16:14.863Z,32.6
2017-07-05T07:17:10.290Z,32.5
2017-07-05T07:18:10.715Z,32.5
2017-07-05T07:19:08.989Z,32.5
2017-07-05T07:20:10.125Z,32.4
2017-07-05T07:21:17.702Z,32.5
2017-07-05T07:22:08.970Z,32.5
2017-07-05T07:23:09.029Z,32.5
2017-07-05T07:24:15.301Z,32.5
2017-07-05T07:25:09.203Z,32.5
2017-07-05T07:26:08.971Z,32.6
2017-07-05T07:27:11.012Z,32.7
2017-07-05T07:28:11.903Z,32.7
2017-07-05T07:29:14.395Z,32.7
2017-07-05T07:30:15.649Z,32.7
2017-07-05T07:31:13.473Z,32.8
2017-07-05T07:32:09.443Z,32.4
2017-07-05T07:33:12.267Z,32.9
2017-07-05T07:34:14.535Z,32.9
2017-07-05T07:35:11.643Z,32.9
2017-07-05T07:36:09.607Z,33
2017-07-05T07:37:09.773Z,33
2017-07-05T07:38:12.684Z,33
2017-07-05T07:39:14.927Z,33
2017-07-05T07:40:16.203Z,33
2017-07-05T07:41:12.713Z,33
2017-07-05T07:42:15.717Z,33
2017-07-05T07:43:12.866Z,33
2017-07-05T07:44:10.845Z,33
2017-07-05T07:45:10.849Z,33
2017-07-05T07:46:13.066Z,33
2017-07-05T07:47:10.108Z,33.1
2017-07-05T07:48:15.272Z,33.2
2017-07-05T07:49:16.246Z,33.2
2017-07-05T07:50:10.526Z,33.2
2017-07-05T07:51:13.256Z,33.2
2017-07-05T07:52:13.320Z,33.3
2017-07-05T07:53:11.088Z,33.3
2017-07-05T07:54:10.364Z,33.4
2017-07-05T07:55:15.526Z,33.4
2017-07-05T07:56:15.656Z,33.4
2017-07-05T07:57:15.795Z,33.4
2017-07-05T07:58:11.343Z,33.4
2017-07-05T07:59:16.389Z,33.5
2017-07-05T08:00:10.949Z,33.5
2017-07-05T08:01:10.865Z,33.5
2017-07-05T08:02:13.777Z,33.5
2017-07-05T08:03:20.351Z,33.6
2017-07-05T08:04:18.332Z,33.6
2017-07-05T08:05:23.029Z,33.6
2017-07-05T08:06:16.038Z,33.6
2017-07-05T08:07:16.146Z,33.6
2017-07-05T08:08:19.944Z,33.6
2017-07-05T08:09:16.127Z,33.6
2017-07-05T08:10:12.485Z,33.6
2017-07-05T08:11:18.610Z,33.6
2017-07-05T08:12:13.003Z,33.7
2017-07-05T08:13:16.690Z,33.6
2017-07-05T08:14:20.236Z,33.7
2017-07-05T08:15:14.283Z,33.7
2017-07-05T08:16:16.476Z,33.8
2017-07-05T08:17:17.235Z,33.8
2017-07-05T08:18:11.960Z,33.8
2017-07-05T08:19:16.296Z,33.9
2017-07-05T08:20:25.485Z,34
2017-07-05T08:21:17.743Z,34
2017-07-05T08:22:15.862Z,33.9
2017-07-05T08:23:14.345Z,33.9
2017-07-05T08:24:15.085Z,33.9
2017-07-05T08:25:12.499Z,33.8
2017-07-05T08:26:16.700Z,33.8
2017-07-05T08:27:20.250Z,33.9
2017-07-05T08:28:18.772Z,33.9
2017-07-05T08:29:15.415Z,34
2017-07-05T08:30:13.981Z,34
2017-07-05T08:31:14.272Z,34
2017-07-05T08:32:13.466Z,34.1
2017-07-05T08:33:19.130Z,34.1
2017-07-05T08:34:13.873Z,34.1
2017-07-05T08:35:20.042Z,34.2
2017-07-05T08:36:17.203Z,34.1
2017-07-05T08:37:19.277Z,34
2017-07-05T08:38:21.395Z,33.9
2017-07-05T08:39:20.790Z,33.8
2017-07-05T08:40:17.239Z,33.8
2017-07-05T08:41:17.441Z,33.7
2017-07-05T08:42:20.962Z,33.7
2017-07-05T08:43:17.075Z,33.6
2017-07-05T08:44:22.166Z,33.5
2017-07-05T08:45:15.329Z,33.5
2017-07-05T08:46:15.173Z,33.4
2017-07-05T08:47:16.392Z,33.4
2017-07-05T08:48:19.772Z,33.3
2017-07-05T08:49:14.972Z,33.2
2017-07-05T08:50:14.037Z,33.1
2017-07-05T08:51:18.198Z,33
2017-07-05T08:52:14.821Z,32.9
2017-07-05T08:53:21.245Z,32.9
2017-07-05T08:54:21.701Z,32.9
2017-07-05T08:55:15.689Z,32.8
2017-07-05T08:56:18.362Z,32.8
2017-07-05T08:57:15.682Z,32.8
2017-07-05T08:58:20.338Z,32.8
2017-07-05T08:59:14.663Z,32.7
2017-07-05T09:00:20.738Z,32.8
2017-07-05T09:01:18.063Z,32.8
2017-07-05T09:02:22.517Z,32.8
2017-07-05T09:03:14.630Z,32.8
2017-07-05T09:04:19.106Z,32.8
2017-07-05T09:05:15.366Z,32.8
2017-07-05T09:06:18.534Z,32.8
2017-07-05T09:07:19.679Z,32.9
2017-07-05T09:08:14.375Z,32.9
2017-07-05T09:09:15.837Z,32.9
2017-07-05T09:10:16.499Z,32.9
2017-07-05T09:11:23.129Z,33
2017-07-05T09:12:15.847Z,33
2017-07-05T09:13:22.177Z,33.1
2017-07-05T09:14:20.811Z,33.1
2017-07-05T09:15:22.460Z,33.1
2017-07-05T09:16:18.047Z,33.1
2017-07-05T09:17:20.933Z,33.1
2017-07-05T09:18:15.350Z,33.1
2017-07-05T09:19:20.064Z,33.1
2017-07-05T09:20:15.555Z,33.1
2017-07-05T09:21:16.100Z,33
2017-07-05T09:22:14.852Z,33
2017-07-05T09:23:20.013Z,33
2017-07-05T09:24:20.002Z,33
2017-07-05T09:25:20.909Z,33
2017-07-05T09:26:16.410Z,33
2017-07-05T09:27:21.126Z,32.9
2017-07-05T09:28:24.207Z,32.9
2017-07-05T09:29:17.611Z,32.9
2017-07-05T09:30:17.942Z,32.9
2017-07-05T09:31:17.274Z,32.9
2017-07-05T09:32:19.759Z,32.8
2017-07-05T09:33:22.198Z,32.9
2017-07-05T09:34:16.304Z,32.8
2017-07-05T09:35:22.544Z,32.8
2017-07-05T09:36:20.029Z,32.8
2017-07-05T09:37:20.446Z,32.7
2017-07-05T09:38:20.653Z,32.8
2017-07-05T09:39:24.892Z,32.8
2017-07-05T09:40:24.372Z,32.8
2017-07-05T09:41:19.451Z,32.8
2017-07-05T09:42:18.544Z,32.8
2017-07-05T09:43:17.498Z,32.8
2017-07-05T09:44:19.692Z,32.8
2017-07-05T09:45:20.401Z,32.8
2017-07-05T09:46:24.367Z,32.8
2017-07-05T09:47:21.802Z,32.8
2017-07-05T09:48:23.092Z,32.7
2017-07-05T09:49:22.290Z,32.8
2017-07-05T09:50:26.705Z,32.8
2017-07-05T09:51:20.258Z,32.8
2017-07-05T09:52:20.546Z,32.7
2017-07-05T09:53:25.346Z,32.8
2017-07-05T09:54:17.808Z,32.8
2017-07-05T09:55:22.149Z,32.9
2017-07-05T09:56:17.167Z,32.9
2017-07-05T09:57:18.472Z,32.9
2017-07-05T09:58:23.285Z,32.9
2017-07-05T09:59:20.427Z,32.8
2017-07-05T10:00:21.795Z,32.8
2017-07-05T10:01:21.440Z,32.7
2017-07-05T10:02:19.533Z,32.7
2017-07-05T10:03:22.644Z,32.7
2017-07-05T10:04:19.254Z,32.7
2017-07-05T10:05:24.048Z,32.8
2017-07-05T10:06:26.311Z,32.8
2017-07-05T10:07:17.845Z,32.8
2017-07-05T10:08:19.131Z,32.8
2017-07-05T10:09:23.807Z,32.9
2017-07-05T10:10:23.690Z,33
2017-07-05T10:11:19.559Z,32.9
2017-07-05T10:12:23.249Z,32.9
2017-07-05T10:13:20.301Z,32.8
2017-07-05T10:14:25.405Z,32.8
2017-07-05T10:15:18.138Z,32.7
2017-07-05T10:16:23.248Z,32.8
2017-07-05T10:17:21.274Z,32.8
2017-07-05T10:18:18.579Z,32.7
2017-07-05T10:19:17.814Z,32.8
2017-07-05T10:20:24.190Z,32.8
2017-07-05T10:21:22.071Z,32.8
2017-07-05T10:22:21.402Z,32.8
2017-07-05T10:23:24.327Z,32.8
2017-07-05T10:24:21.248Z,32.7
2017-07-05T10:25:23.718Z,32.8
2017-07-05T10:26:18.305Z,32.7
2017-07-05T10:27:26.121Z,32.7
2017-07-05T10:28:23.689Z,32.7
2017-07-05T10:29:20.481Z,32.8
2017-07-05T10:30:22.453Z,32.8
2017-07-05T10:31:20.127Z,32.9
2017-07-05T10:32:21.580Z,32.9
2017-07-05T10:33:23.651Z,32.9
2017-07-05T10:34:25.010Z,32.9
2017-07-05T10:35:18.856Z,32.9
2017-07-05T10:36:20.850Z,32.9
2017-07-05T10:37:20.253Z,32.9
2017-07-05T10:38:20.871Z,32.9
2017-07-05T10:39:26.824Z,33
2017-07-05T10:40:24.630Z,33
2017-07-05T10:41:25.217Z,33
2017-07-05T10:42:22.615Z,32.9
2017-07-05T10:43:23.221Z,32.9
2017-07-05T10:44:24.950Z,32.9
2017-07-05T10:45:23.110Z,32.9
2017-07-05T10:46:20.795Z,32.9
2017-07-05T10:47:26.855Z,32.9
2017-07-05T10:48:20.180Z,32.9
2017-07-05T10:49:22.233Z,32.9
2017-07-05T10:50:26.028Z,32.9
2017-07-05T10:51:27.057Z,32.9
2017-07-05T10:52:20.969Z,32.9
2017-07-05T10:53:21.600Z,32.9
2017-07-05T10:54:19.902Z,33
2017-07-05T10:55:25.939Z,33
2017-07-05T10:56:22.443Z,33
2017-07-05T10:57:21.222Z,33
2017-07-05T10:58:26.894Z,33
2017-07-05T10:59:25.529Z,33.1
2017-07-05T11:00:25.082Z,33.1
2017-07-05T11:01:21.863Z,33.2
2017-07-05T11:02:22.261Z,33.2
2017-07-05T11:03:24.979Z,33.3
2017-07-05T11:04:26.210Z,33.3
2017-07-05T11:05:23.268Z,33.3
2017-07-05T11:06:26.820Z,33.3
2017-07-05T11:07:20.924Z,33.3
2017-07-05T11:08:25.573Z,33.4
2017-07-05T11:09:21.385Z,33.3
2017-07-05T11:10:22.463Z,33.4
2017-07-05T11:11:27.642Z,33.4
2017-07-05T11:12:24.122Z,33.4
2017-07-05T11:13:24.108Z,33.4
2017-07-05T11:14:21.347Z,33.4
2017-07-05T11:15:26.802Z,33.5
2017-07-05T11:16:24.999Z,33.5
2017-07-05T11:17:22.217Z,33.5
2017-07-05T11:18:26.887Z,33.5
2017-07-05T11:19:22.895Z,33.5
2017-07-05T11:20:21.501Z,33.5
2017-07-05T11:21:27.247Z,33.5
2017-07-05T11:22:22.442Z,33.5
2017-07-05T11:23:21.047Z,33.5
2017-07-05T11:24:21.941Z,33.5
2017-07-05T11:25:24.925Z,33.4
2017-07-05T11:26:21.347Z,33.5
2017-07-05T11:27:21.964Z,33.4
2017-07-05T11:28:21.742Z,33.4
2017-07-05T11:29:28.229Z,33.4
2017-07-05T11:30:25.797Z,33.4
2017-07-05T11:31:25.841Z,33.4
2017-07-05T11:32:24.450Z,33.4
2017-07-05T11:33:22.151Z,33.4
2017-07-05T11:34:21.629Z,33.4
2017-07-05T11:35:25.747Z,33.4
2017-07-05T11:36:21.647Z,33.4
2017-07-05T11:37:25.941Z,33.4
2017-07-05T11:38:21.587Z,33.5
2017-07-05T11:39:26.767Z,33.5
2017-07-05T11:40:27.662Z,33.5
2017-07-05T11:41:23.240Z,33.5
2017-07-05T11:42:21.909Z,33.5
2017-07-05T11:43:26.720Z,33.4
2017-07-05T11:44:28.054Z,33.4
2017-07-05T11:45:24.661Z,33.4
2017-07-05T11:46:23.233Z,33.4
2017-07-05T11:47:26.305Z,33.3
2017-07-05T11:48:23.891Z,33.3
2017-07-05T11:49:22.656Z,33.1
2017-07-05T11:50:23.532Z,33.1
2017-07-05T11:51:26.341Z,33
2017-07-05T11:52:25.257Z,33
2017-07-05T11:53:26.452Z,33
2017-07-05T11:54:26.322Z,33
2017-07-05T11:55:22.387Z,33
2017-07-05T11:56:28.811Z,33
2017-07-05T11:57:26.805Z,33
2017-07-05T11:58:22.720Z,33
2017-07-05T11:59:27.758Z,33.1
2017-07-05T12:00:29.263Z,33.2
2017-07-05T12:01:31.459Z,33.1
2017-07-05T12:02:23.557Z,33.1
2017-07-05T12:03:23.041Z,33.1
2017-07-05T12:04:28.573Z,33.1
2017-07-05T12:05:29.052Z,33.2
2017-07-05T12:06:24.353Z,33.3
2017-07-05T12:07:23.784Z,33.3
2017-07-05T12:08:26.679Z,33.3
2017-07-05T12:09:28.161Z,33.4
2017-07-05T12:10:29.414Z,33.3
2017-07-05T12:11:28.752Z,33.3
2017-07-05T12:12:30.242Z,33.2
2017-07-05T12:13:26.710Z,33.2
2017-07-05T12:14:29.012Z,33.2
2017-07-05T12:15:29.566Z,33.2
2017-07-05T12:16:24.247Z,33.2
2017-07-05T12:17:29.152Z,33.2
2017-07-05T12:18:23.545Z,33.2
2017-07-05T12:19:25.205Z,33.2
2017-07-05T12:20:24.876Z,33.2
2017-07-05T12:21:27.754Z,33.2
2017-07-05T12:22:23.767Z,33.2
2017-07-05T12:23:28.736Z,33.2
2017-07-05T12:24:28.688Z,33.2
2017-07-05T12:25:29.311Z,33.3
2017-07-05T12:26:26.627Z,33.3
2017-07-05T12:27:26.664Z,33.3
2017-07-05T12:28:29.448Z,33.2
2017-07-05T12:29:24.054Z,33.2
2017-07-05T12:30:27.612Z,33.2
2017-07-05T12:31:27.382Z,33.2
2017-07-05T12:32:29.497Z,33.3
2017-07-05T12:33:26.065Z,33.4
2017-07-05T12:34:24.971Z,33.4
2017-07-05T12:35:29.127Z,33.4
2017-07-05T12:36:26.535Z,33.2
2017-07-05T12:37:27.875Z,33.2
2017-07-05T12:38:28.749Z,33.1
2017-07-05T12:39:30.954Z,33
2017-07-05T12:40:30.863Z,33
2017-07-05T12:41:24.565Z,33
2017-07-05T12:42:30.146Z,33
2017-07-05T12:43:30.314Z,33.1
2017-07-05T12:44:24.611Z,33.1
2017-07-05T12:45:28.262Z,33.1
2017-07-05T12:46:24.738Z,33.1
2017-07-05T12:47:27.661Z,33.1
2017-07-05T12:48:24.609Z,33.1
2017-07-05T12:49:28.764Z,33
2017-07-05T12:50:29.822Z,33.1
2017-07-05T12:51:26.338Z,33
2017-07-05T12:52:30.977Z,33
2017-07-05T12:53:25.077Z,33
2017-07-05T12:54:26.152Z,32.9
2017-07-05T12:55:28.372Z,32.9
2017-07-05T12:56:26.066Z,32.9
2017-07-05T12:57:25.361Z,32.8
2017-07-05T12:58:32.527Z,32.8
2017-07-05T12:59:25.207Z,32.8
2017-07-05T13:00:28.995Z,32.7
2017-07-05T13:01:25.511Z,32.7
2017-07-05T13:02:31.605Z,32.7
2017-07-05T13:03:25.951Z,32.8
2017-07-05T13:04:31.076Z,32.8
2017-07-05T13:05:26.734Z,32.7
2017-07-05T13:06:26.381Z,32.6
2017-07-05T13:07:31.292Z,32.7
2017-07-05T13:08:26.886Z,32.7
2017-07-05T13:09:29.421Z,32.6
2017-07-05T13:10:25.895Z,32.6
2017-07-05T13:11:30.928Z,32.6
2017-07-05T13:12:28.686Z,32.6
2017-07-05T13:13:25.848Z,32.6
2017-07-05T13:14:27.083Z,32.6
2017-07-05T13:15:26.059Z,32.6
2017-07-05T13:16:32.414Z,32.6
2017-07-05T13:17:27.686Z,32.7
2017-07-05T13:18:33.504Z,32.8
2017-07-05T13:19:26.414Z,32.8
2017-07-05T13:20:27.242Z,32.9
2017-07-05T13:21:26.351Z,32.9
2017-07-05T13:22:31.461Z,33
2017-07-05T13:23:32.637Z,33.1
2017-07-05T13:24:33.443Z,33.1
2017-07-05T13:25:31.458Z,33.2